Time;durP1;ratioP1;P1;durP2;ratioP2;P2;SDS_P1;SDS_P2;PMS_P1;PMS_P2;Temp;Humidity;BMP_temperature;BMP_pressure;BME280_temperature;BME280_humidity;BME280_pressure;Samples;Min_cycle;Max_cycle;Signal;HPM_P1;HPM_P2
2023/07/01 00:01:45;;;;;;;7.38;1.30;;;17.70;97.20;;;;;;5091516;27;20061;-82
2023/07/01 00:04:12;;;;;;;7.28;1.65;;;17.70;97.20;;;;;;5093212;27;20040;-82
2023/07/01 00:06:41;;;;;;;3.22;0.93;;;17.70;97.50;;;;;;5057798;27;20049;-82
2023/07/01 00:09:09;;;;;;;8.43;2.00;;;17.70;97.10;;;;;;5093036;27;20075;-82
2023/07/01 00:11:35;;;;;;;4.82;1.25;;;17.70;97.10;;;;;;5091869;27;20093;-81
2023/07/01 00:14:00;;;;;;;7.35;1.73;;;17.70;97.10;;;;;;5091380;27;20043;-82
2023/07/01 00:16:27;;;;;;;2.38;1.08;;;17.70;97.10;;;;;;5058686;27;20099;-82
2023/07/01 00:18:53;;;;;;;5.15;1.38;;;17.70;97.10;;;;;;5107671;27;20502;-81
2023/07/01 00:21:19;;;;;;;5.47;1.00;;;17.70;97.20;;;;;;5110110;27;20107;-81
2023/07/01 00:23:44;;;;;;;9.48;1.35;;;17.70;97.10;;;;;;5108013;27;20078;-81
2023/07/01 00:26:10;;;;;;;6.53;1.10;;;17.70;97.00;;;;;;5076313;27;20138;-82
2023/07/01 00:28:36;;;;;;;3.78;0.95;;;17.70;97.20;;;;;;5074528;27;20043;-82
2023/07/01 00:31:01;;;;;;;7.32;1.45;;;17.70;96.90;;;;;;5108551;27;20043;-82
2023/07/01 00:33:27;;;;;;;6.45;2.13;;;18.50;97.10;;;;;;5108938;27;20064;-81
2023/07/01 00:35:53;;;;;;;4.25;1.35;;;17.70;97.00;;;;;;5107486;27;20046;-82
2023/07/01 00:38:19;;;;;;;4.22;1.10;;;17.70;97.10;;;;;;5109602;27;20039;-81
2023/07/01 00:40:44;;;;;;;4.75;1.55;;;17.70;97.10;;;;;;5073021;27;20085;-80
2023/07/01 00:43:10;;;;;;;9.15;1.98;;;17.70;97.10;;;;;;5075980;27;20047;-81
2023/07/01 00:45:36;;;;;;;3.83;1.60;;;17.70;97.10;;;;;;5090568;27;20069;-81
2023/07/01 00:48:02;;;;;;;5.47;1.67;;;17.70;97.10;;;;;;5091161;27;20047;-81
2023/07/01 00:50:28;;;;;;;4.47;1.00;;;17.70;97.20;;;;;;5091552;27;20095;-79
2023/07/01 00:52:54;;;;;;;3.80;1.15;;;17.70;97.20;;;;;;5090668;27;20035;-80
2023/07/01 00:55:20;;;;;;;3.22;0.80;;;17.70;97.40;;;;;;5109619;27;20045;-81
2023/07/01 00:57:45;;;;;;;7.97;1.23;;;17.70;97.40;;;;;;5073322;27;20611;-81
2023/07/01 01:00:12;;;;;;;10.48;1.38;;;17.70;97.50;;;;;;5092406;27;20130;-80
2023/07/01 01:02:44;;;;;;;3.35;1.13;;;17.70;97.50;;;;;;5090297;27;20074;-81
2023/07/01 01:05:17;;;;;;;3.85;1.17;;;17.60;97.60;;;;;;5108814;27;20043;-81
2023/07/01 01:07:43;;;;;;;;;;;17.60;97.80;;;;;;5114451;27;20039;-81
2023/07/01 01:10:17;;;;;;;5.95;1.08;;;17.70;98.30;;;;;;5112224;27;19919;-81
2023/07/01 01:12:45;;;;;;;9.50;1.17;;;17.60;97.90;;;;;;5094281;27;20440;-81
2023/07/01 01:15:11;;;;;;;3.75;1.35;;;17.60;98.10;;;;;;5107425;27;20043;-80
2023/07/01 01:17:40;;;;;;;4.28;1.25;;;17.60;98.30;;;;;;5092142;27;20053;-81
2023/07/01 01:20:13;;;;;;;5.93;1.45;;;17.60;98.40;;;;;;5108019;27;20053;-81
2023/07/01 01:22:47;;;;;;;10.90;1.25;;;17.60;98.50;;;;;;5089889;27;20126;-82
2023/07/01 01:25:42;;;;;;;8.88;1.45;;;17.60;98.60;;;;;;5109105;27;20458;-81
2023/07/01 01:28:09;;;;;;;2.58;1.08;;;17.60;99.20;;;;;;5078653;27;20086;-81
2023/07/01 01:30:35;;;;;;;4.32;1.10;;;17.60;99.10;;;;;;5108448;27;20057;-81
2023/07/01 01:33:02;;;;;;;2.78;1.23;;;17.60;99.50;;;;;;5090333;27;20589;-82
2023/07/01 01:35:27;;;;;;;11.65;1.27;;;17.60;99.90;;;;;;5106830;27;20054;-81
2023/07/01 01:38:05;;;;;;;6.00;1.30;;;17.60;99.80;;;;;;5091015;27;20047;-81
2023/07/01 01:40:51;;;;;;;2.45;1.20;;;17.50;99.90;;;;;;5105789;27;20043;-81
2023/07/01 01:43:34;;;;;;;2.55;1.00;;;17.50;99.90;;;;;;5108152;27;20107;-81
2023/07/01 01:46:01;;;;;;;4.60;1.30;;;17.50;99.90;;;;;;5107389;27;20089;-81
2023/07/01 01:48:28;;;;;;;3.83;1.63;;;17.40;99.90;;;;;;5089833;27;20043;-81
2023/07/01 01:50:56;;;;;;;7.85;1.33;;;17.30;99.90;;;;;;5058219;27;20054;-81
2023/07/01 01:53:26;;;;;;;4.25;1.60;;;17.20;99.90;;;;;;5106371;27;20456;-81
2023/07/01 01:55:53;;;;;;;4.25;1.73;;;17.10;99.90;;;;;;5092068;27;20051;-81
2023/07/01 01:58:20;;;;;;;3.38;1.73;;;17.00;99.90;;;;;;5089909;27;20099;-80
2023/07/01 02:00:46;;;;;;;8.77;1.70;;;16.90;99.90;;;;;;5090441;27;20432;-81
2023/07/01 02:03:12;;;;;;;6.60;2.05;;;16.80;99.90;;;;;;5090474;27;20042;-81
2023/07/01 02:05:38;;;;;;;4.43;1.63;;;16.70;99.90;;;;;;5089484;27;20559;-80
2023/07/01 02:08:04;;;;;;;5.07;1.80;;;16.60;99.90;;;;;;5091575;27;20143;-81
2023/07/01 02:10:32;;;;;;;7.93;1.98;;;16.60;99.90;;;;;;5105617;27;20054;-78
2023/07/01 02:12:58;;;;;;;2.20;1.50;;;16.50;99.90;;;;;;5107950;27;20126;-81
2023/07/01 02:15:24;;;;;;;4.65;1.67;;;16.50;99.90;;;;;;5089131;27;20130;-80
2023/07/01 02:17:49;;;;;;;4.32;2.05;;;16.40;99.90;;;;;;5073234;27;20236;-81
2023/07/01 02:20:16;;;;;;;7.30;1.60;;;16.40;99.90;;;;;;5090324;27;20039;-80
2023/07/01 02:22:42;;;;;;;3.92;2.50;;;16.30;99.90;;;;;;5088711;27;20028;-81
2023/07/01 02:25:08;;;;;;;5.47;1.70;;;16.30;99.90;;;;;;5090848;28;20040;-81
2023/07/01 02:27:33;;;;;;;6.10;1.77;;;16.30;99.90;;;;;;5088787;28;20054;-81
2023/07/01 02:29:59;;;;;;;9.75;2.10;;;16.30;99.90;;;;;;5091495;28;20039;-82
2023/07/01 02:32:25;;;;;;;6.03;1.65;;;16.20;99.90;;;;;;5108085;27;20046;-81
2023/07/01 02:34:51;;;;;;;5.40;1.48;;;16.30;99.90;;;;;;5114400;27;20477;-80
2023/07/01 02:37:17;;;;;;;4.38;1.80;;;16.20;99.90;;;;;;5114675;27;20143;-80
2023/07/01 02:39:45;;;;;;;5.95;1.52;;;16.20;99.90;;;;;;5113774;27;20477;-79
2023/07/01 02:42:11;;;;;;;4.85;1.67;;;16.30;99.90;;;;;;5083412;27;20216;-80
2023/07/01 02:44:37;;;;;;;5.55;2.13;;;16.20;99.90;;;;;;5079922;27;20111;-81
2023/07/01 02:47:03;;;;;;;5.72;2.45;;;16.20;99.90;;;;;;5097835;27;20047;-80
2023/07/01 02:49:29;;;;;;;6.75;2.50;;;16.30;99.90;;;;;;5112584;27;20043;-81
2023/07/01 02:51:54;;;;;;;7.22;2.00;;;16.30;99.90;;;;;;5114178;27;20079;-81
2023/07/01 02:54:20;;;;;;;9.32;2.13;;;16.30;99.90;;;;;;5096719;27;20032;-81
2023/07/01 02:56:46;;;;;;;3.88;1.92;;;16.30;99.90;;;;;;5112717;27;20097;-81
2023/07/01 02:59:11;;;;;;;5.63;1.90;;;16.30;99.90;;;;;;5080724;27;20046;-82
2023/07/01 03:01:37;;;;;;;5.43;2.08;;;16.40;99.90;;;;;;5111936;27;20084;-82
2023/07/01 03:04:06;;;;;;;6.65;1.88;;;16.40;99.90;;;;;;5081001;27;20103;-81
2023/07/01 03:06:35;;;;;;;5.95;2.17;;;15.90;99.90;;;;;;5112464;27;20046;-80
2023/07/01 03:09:07;;;;;;;4.60;1.63;;;16.50;99.90;;;;;;5113306;27;20096;-80
2023/07/01 03:11:34;;;;;;;3.78;2.35;;;16.60;99.90;;;;;;5113374;27;20046;-81
2023/07/01 03:14:00;;;;;;;4.88;2.45;;;16.60;99.90;;;;;;5111828;27;20043;-81
2023/07/01 03:16:25;;;;;;;9.73;2.50;;;14.80;99.90;;;;;;5113986;27;20084;-80
2023/07/01 03:18:51;;;;;;;3.53;2.63;;;16.60;99.90;;;;;;5077635;27;20130;-81
2023/07/01 03:21:17;;;;;;;5.53;2.30;;;16.70;99.90;;;;;;5063845;27;20065;-81
2023/07/01 03:23:43;;;;;;;5.05;2.90;;;16.70;99.90;;;;;;5113125;27;20046;-81
2023/07/01 03:26:09;;;;;;;5.10;2.60;;;16.60;99.90;;;;;;5114051;27;20556;-81
2023/07/01 03:28:34;;;;;;;4.55;2.95;;;15.60;99.90;;;;;;5096605;27;20050;-80
2023/07/01 03:31:00;;;;;;;4.82;2.50;;;14.80;99.90;;;;;;5131227;27;20047;-82
2023/07/01 03:33:26;;;;;;;5.72;2.80;;;16.60;99.90;;;;;;5132710;27;20414;-81
2023/07/01 03:35:52;;;;;;;11.75;3.22;;;16.50;99.90;;;;;;5112057;27;20079;-81
2023/07/01 03:38:17;;;;;;;4.90;3.08;;;16.50;99.90;;;;;;5080742;27;20054;-80
2023/07/01 03:40:43;;;;;;;6.07;3.00;;;16.40;99.90;;;;;;5130406;27;20050;-81
2023/07/01 03:43:09;;;;;;;7.85;3.28;;;16.30;99.90;;;;;;5113661;27;20035;-80
2023/07/01 03:45:35;;;;;;;5.80;3.88;;;16.70;99.90;;;;;;5127683;27;20528;-82
2023/07/01 03:48:00;;;;;;;6.38;2.85;;;16.30;99.90;;;;;;5128102;27;20051;-81
2023/07/01 03:50:26;;;;;;;7.30;3.22;;;16.30;99.90;;;;;;5093790;27;20036;-81
2023/07/01 03:52:52;;;;;;;5.22;2.45;;;16.20;99.90;;;;;;5091361;27;20054;-80
2023/07/01 03:55:18;;;;;;;3.83;2.35;;;16.20;99.90;;;;;;5129933;27;20043;-80
2023/07/01 03:57:43;;;;;;;5.47;2.72;;;16.20;99.90;;;;;;5127121;27;20296;-80
2023/07/01 04:00:17;;;;;;;5.05;2.90;;;16.20;99.90;;;;;;5129180;27;20043;-80
2023/07/01 04:02:44;;;;;;;7.25;2.75;;;16.20;99.90;;;;;;5078865;27;20088;-81
2023/07/01 04:05:10;;;;;;;3.97;2.65;;;16.20;99.90;;;;;;5128545;27;20044;-81
2023/07/01 04:07:37;;;;;;;8.38;2.70;;;16.20;99.90;;;;;;5129166;27;20494;-81
2023/07/01 04:10:05;;;;;;;4.03;2.47;;;16.20;99.90;;;;;;5126882;27;20050;-80
2023/07/01 04:12:32;;;;;;;8.57;2.72;;;16.20;99.90;;;;;;5132715;27;20398;-80
2023/07/01 04:15:00;;;;;;;4.35;2.40;;;16.20;99.90;;;;;;5110823;27;20164;-80
2023/07/01 04:17:26;;;;;;;4.53;2.00;;;16.20;99.90;;;;;;5111696;27;20051;-81
2023/07/01 04:19:52;;;;;;;7.13;2.72;;;16.20;99.90;;;;;;5093321;27;20080;-81
2023/07/01 04:22:19;;;;;;;10.38;2.35;;;16.20;99.90;;;;;;5091975;27;20140;-81
2023/07/01 04:24:45;;;;;;;3.92;2.35;;;16.20;99.90;;;;;;5093341;27;20143;-81
2023/07/01 04:27:10;;;;;;;9.13;3.70;;;16.20;99.90;;;;;;5091377;27;20100;-82
2023/07/01 04:29:36;;;;;;;3.42;2.63;;;16.20;99.90;;;;;;5093448;27;20379;-81
2023/07/01 04:32:02;;;;;;;7.57;2.70;;;16.20;99.90;;;;;;5126730;27;20100;-82
2023/07/01 04:34:27;;;;;;;6.13;2.58;;;16.30;99.90;;;;;;5127305;27;20043;-82
2023/07/01 04:36:53;;;;;;;5.05;2.20;;;16.30;99.90;;;;;;5127393;27;20170;-82
2023/07/01 04:39:22;;;;;;;5.97;2.88;;;16.30;99.90;;;;;;5107900;27;20062;-81
2023/07/01 04:41:48;;;;;;;7.40;2.50;;;16.30;99.90;;;;;;5109664;27;20047;-83
2023/07/01 04:44:14;;;;;;;4.32;2.22;;;16.40;99.90;;;;;;5090445;27;20481;-82
2023/07/01 04:46:40;;;;;;;5.75;2.13;;;16.50;99.90;;;;;;5093122;27;20140;-81
2023/07/01 04:49:08;;;;;;;7.75;2.20;;;16.50;99.90;;;;;;5090837;27;20550;-82
2023/07/01 04:51:34;;;;;;;4.60;1.98;;;16.50;99.90;;;;;;5092433;27;20039;-82
2023/07/01 04:54:01;;;;;;;6.95;2.08;;;16.50;99.90;;;;;;5109294;27;20043;-81
2023/07/01 04:56:27;;;;;;;8.23;3.17;;;16.60;99.90;;;;;;5125061;27;20076;-81
2023/07/01 04:58:53;;;;;;;5.95;2.00;;;16.60;99.90;;;;;;5092088;27;20039;-82
2023/07/01 05:01:19;;;;;;;7.53;2.20;;;15.00;99.90;;;;;;5125572;27;20133;-81
2023/07/01 05:03:45;;;;;;;5.70;2.15;;;16.60;99.90;;;;;;5109989;27;20051;-81
2023/07/01 05:06:11;;;;;;;5.13;2.03;;;16.60;99.90;;;;;;5107703;27;20093;-82
2023/07/01 05:08:36;;;;;;;6.70;2.30;;;16.60;99.90;;;;;;5127754;27;20159;-81
2023/07/01 05:11:03;;;;;;;7.63;3.08;;;16.70;99.90;;;;;;5075396;27;20410;-81
2023/07/01 05:13:29;;;;;;;6.78;3.00;;;16.70;99.90;;;;;;5108455;27;20050;-81
2023/07/01 05:15:55;;;;;;;8.68;3.20;;;16.70;99.90;;;;;;5109591;27;20448;-80
2023/07/01 05:18:20;;;;;;;7.82;2.80;;;16.70;99.90;;;;;;5125620;27;20031;-81
2023/07/01 05:20:47;;;;;;;4.50;3.17;;;16.70;99.90;;;;;;5109721;27;20043;-81
2023/07/01 05:23:12;;;;;;;6.75;3.08;;;16.80;99.90;;;;;;5107322;27;20340;-82
2023/07/01 05:25:38;;;;;;;5.22;3.05;;;16.80;99.90;;;;;;5091850;27;20050;-80
2023/07/01 05:28:04;;;;;;;8.05;3.15;;;16.80;99.90;;;;;;5108195;27;20046;-81
2023/07/01 05:30:29;;;;;;;5.85;2.83;;;16.10;99.90;;;;;;5126086;27;20043;-79
2023/07/01 05:32:55;;;;;;;6.68;3.40;;;16.80;99.90;;;;;;5091772;27;20410;-81
2023/07/01 05:35:21;;;;;;;4.68;2.85;;;16.80;99.90;;;;;;5107034;27;20047;-80
2023/07/01 05:37:47;;;;;;;4.07;3.05;;;17.80;99.90;;;;;;5127690;27;20521;-80
2023/07/01 05:40:12;;;;;;;8.18;3.42;;;16.80;99.90;;;;;;5106170;27;20398;-80
2023/07/01 05:42:38;;;;;;;5.78;2.80;;;16.80;99.90;;;;;;5127334;27;20039;-80
2023/07/01 05:45:05;;;;;;;4.00;2.83;;;16.80;99.90;;;;;;5128053;27;20039;-79
2023/07/01 05:47:31;;;;;;;6.07;3.28;;;16.90;99.90;;;;;;5128665;27;20104;-80
2023/07/01 05:49:57;;;;;;;5.78;2.75;;;16.90;99.90;;;;;;5109992;27;20036;-81
2023/07/01 05:52:23;;;;;;;5.65;2.75;;;16.90;99.90;;;;;;5107190;27;20231;-80
2023/07/01 05:54:48;;;;;;;6.05;2.97;;;16.90;99.90;;;;;;5127389;27;20047;-80
2023/07/01 05:57:14;;;;;;;6.40;3.00;;;16.90;99.90;;;;;;5125443;27;20148;-80
2023/07/01 05:59:40;;;;;;;6.47;2.83;;;17.00;99.90;;;;;;5091721;27;20046;-80
2023/07/01 06:02:07;;;;;;;5.45;2.80;;;17.00;99.90;;;;;;5090142;27;20039;-80
2023/07/01 06:04:33;;;;;;;4.75;2.92;;;17.00;99.90;;;;;;5073352;27;20051;-82
2023/07/01 06:06:58;;;;;;;6.63;2.80;;;17.00;99.90;;;;;;5107935;27;20127;-81
2023/07/01 06:09:24;;;;;;;5.00;3.35;;;17.00;99.90;;;;;;5072403;27;20349;-79
2023/07/01 06:11:50;;;;;;;7.03;2.92;;;17.00;99.90;;;;;;5091255;27;20047;-79
2023/07/01 06:14:19;;;;;;;5.40;4.40;;;17.00;99.90;;;;;;5124445;27;20653;-81
2023/07/01 06:16:44;;;;;;;4.80;4.22;;;17.00;99.90;;;;;;5091144;27;20074;-80
2023/07/01 06:19:10;;;;;;;7.18;3.42;;;17.00;99.90;;;;;;5106694;27;20054;-80
2023/07/01 06:21:36;;;;;;;6.72;3.17;;;17.00;99.90;;;;;;5089602;27;20039;-85
2023/07/01 06:24:02;;;;;;;6.97;3.95;;;16.60;99.90;;;;;;5090258;28;20144;-81
2023/07/01 06:26:28;;;;;;;5.95;3.90;;;16.90;99.90;;;;;;5105485;27;20474;-81
2023/07/01 06:28:54;;;;;;;7.50;3.45;;;16.90;99.90;;;;;;5107896;28;20111;-79
2023/07/01 06:31:19;;;;;;;7.43;4.05;;;16.80;99.90;;;;;;5088415;28;20047;-79
2023/07/01 06:33:45;;;;;;;6.57;4.32;;;16.80;99.90;;;;;;5107892;28;20134;-80
2023/07/01 06:36:12;;;;;;;5.30;3.90;;;16.80;99.90;;;;;;5089014;28;20076;-80
2023/07/01 06:38:40;;;;;;;7.85;3.75;;;16.70;99.90;;;;;;5073656;28;20409;-79
2023/07/01 06:41:06;;;;;;;8.25;4.30;;;16.70;99.90;;;;;;5107160;28;20474;-79
2023/07/01 06:43:32;;;;;;;7.10;4.45;;;16.70;99.90;;;;;;5105524;28;20130;-80
2023/07/01 06:45:59;;;;;;;5.10;4.22;;;16.70;99.90;;;;;;5107767;28;20062;-79
2023/07/01 06:48:25;;;;;;;7.97;4.22;;;16.70;99.90;;;;;;5105189;28;20108;-79
2023/07/01 06:50:50;;;;;;;6.28;3.75;;;16.70;99.90;;;;;;5126407;28;20113;-80
2023/07/01 06:53:16;;;;;;;6.18;4.22;;;16.70;99.90;;;;;;5072118;28;20036;-80
2023/07/01 06:55:42;;;;;;;6.63;4.32;;;16.80;99.90;;;;;;5106003;28;20040;-83
2023/07/01 06:58:07;;;;;;;8.07;4.18;;;18.00;99.90;;;;;;5089976;28;20107;-82
2023/07/01 07:00:33;;;;;;;6.90;4.30;;;16.80;99.90;;;;;;5087982;28;20054;-82
2023/07/01 07:03:00;;;;;;;4.30;3.72;;;16.80;99.90;;;;;;5090145;28;20043;-81
2023/07/01 07:05:27;;;;;;;6.80;3.92;;;16.80;99.90;;;;;;5087981;28;20082;-81
2023/07/01 07:07:53;;;;;;;9.93;5.10;;;16.80;99.90;;;;;;5074054;28;20043;-80
2023/07/01 07:10:19;;;;;;;4.97;4.47;;;16.80;99.90;;;;;;5089042;28;20520;-83
2023/07/01 07:12:44;;;;;;;6.18;4.18;;;16.80;99.90;;;;;;5089718;28;20080;-84
2023/07/01 07:15:10;;;;;;;4.20;3.38;;;16.80;99.90;;;;;;5089276;28;20565;-82
2023/07/01 07:17:36;;;;;;;3.88;3.25;;;16.70;99.90;;;;;;5108020;28;20067;-83
2023/07/01 07:20:02;;;;;;;5.35;3.65;;;16.80;99.90;;;;;;5093778;27;20096;-88
2023/07/01 07:22:27;;;;;;;4.47;3.05;;;16.80;99.90;;;;;;5076061;27;20073;-81
2023/07/01 07:24:53;;;;;;;4.88;3.28;;;16.80;99.90;;;;;;5077685;27;20489;-81
2023/07/01 07:27:19;;;;;;;4.15;3.75;;;16.80;99.90;;;;;;5092728;27;20063;-82
2023/07/01 07:29:44;;;;;;;3.88;3.47;;;16.80;99.90;;;;;;5093970;27;20039;-81
2023/07/01 07:32:10;;;;;;;4.78;3.80;;;16.80;99.90;;;;;;5094179;27;20047;-81
2023/07/01 07:34:38;;;;;;;3.72;3.30;;;16.80;99.90;;;;;;5076067;27;20039;-82
2023/07/01 07:37:04;;;;;;;4.95;3.00;;;16.80;99.90;;;;;;5110795;27;20078;-82
2023/07/01 07:39:30;;;;;;;3.72;3.40;;;16.90;99.90;;;;;;5074853;27;20130;-83
2023/07/01 07:41:56;;;;;;;5.75;3.35;;;16.90;99.90;;;;;;5078032;27;20063;-82
2023/07/01 07:44:22;;;;;;;3.25;2.95;;;16.90;99.90;;;;;;5091557;27;20538;-82
2023/07/01 07:46:47;;;;;;;3.55;3.15;;;16.90;99.90;;;;;;5093300;27;20039;-83
2023/07/01 07:49:13;;;;;;;5.50;3.35;;;17.00;99.90;;;;;;5092787;27;20517;-82
2023/07/01 07:51:39;;;;;;;3.55;2.75;;;17.00;99.90;;;;;;5109222;27;20043;-82
2023/07/01 07:54:04;;;;;;;3.30;3.00;;;17.10;99.90;;;;;;5110709;27;20100;-83
2023/07/01 07:56:30;;;;;;;4.75;3.15;;;17.10;99.90;;;;;;5074487;27;20035;-83
2023/07/01 07:58:56;;;;;;;5.30;3.03;;;17.20;99.90;;;;;;5077071;27;20039;-82
2023/07/01 08:01:22;;;;;;;2.90;2.60;;;17.20;99.90;;;;;;5074368;27;20045;-81
2023/07/01 08:03:48;;;;;;;3.72;3.42;;;17.20;99.90;;;;;;5110203;27;20540;-80
2023/07/01 08:06:13;;;;;;;6.13;3.10;;;17.30;99.90;;;;;;5092318;27;20050;-80
2023/07/01 08:08:39;;;;;;;2.65;2.45;;;17.40;99.90;;;;;;5092388;27;20090;-81
2023/07/01 08:11:05;;;;;;;3.15;2.78;;;17.50;99.90;;;;;;5110563;27;20517;-80
2023/07/01 08:13:30;;;;;;;5.97;2.80;;;17.50;99.90;;;;;;5091131;27;20074;-83
2023/07/01 08:15:57;;;;;;;3.03;2.70;;;17.60;99.90;;;;;;5093911;27;20043;-81
2023/07/01 08:18:23;;;;;;;2.33;2.13;;;17.60;99.90;;;;;;5074110;27;20138;-82
2023/07/01 08:20:50;;;;;;;2.72;2.38;;;17.60;99.90;;;;;;5093209;27;20341;-80
2023/07/01 08:23:16;;;;;;;2.35;2.15;;;17.60;99.90;;;;;;5109028;27;20047;-81
2023/07/01 08:25:43;;;;;;;2.53;2.00;;;17.60;99.90;;;;;;5091609;27;20083;-80
2023/07/01 08:28:09;;;;;;;4.47;2.97;;;17.60;99.90;;;;;;5092402;27;20419;-82
2023/07/01 08:30:35;;;;;;;3.08;2.30;;;17.60;99.90;;;;;;5107965;27;20054;-82
2023/07/01 08:33:00;;;;;;;5.20;2.92;;;17.60;99.90;;;;;;5093592;27;20036;-81
2023/07/01 08:35:26;;;;;;;2.55;2.35;;;15.90;99.90;;;;;;5108382;27;20050;-81
2023/07/01 08:37:52;;;;;;;2.85;2.65;;;17.60;99.90;;;;;;5075542;27;20054;-81
2023/07/01 08:40:18;;;;;;;3.13;2.78;;;17.60;99.90;;;;;;5108413;27;20042;-80
2023/07/01 08:42:51;;;;;;;3.08;2.70;;;17.60;99.90;;;;;;5108675;27;20452;-81
2023/07/01 08:45:21;;;;;;;2.67;2.47;;;17.60;99.90;;;;;;5109538;27;20050;-81
2023/07/01 08:47:48;;;;;;;2.40;2.15;;;17.60;99.90;;;;;;5090408;27;20130;-80
2023/07/01 08:50:18;;;;;;;3.00;2.65;;;17.70;99.90;;;;;;5110850;27;20047;-82
2023/07/01 08:52:59;;;;;;;2.90;2.40;;;17.80;99.90;;;;;;5091965;27;20418;-83
2023/07/01 08:55:25;;;;;;;3.95;2.30;;;17.90;99.90;;;;;;5092274;27;20135;-81
2023/07/01 08:57:51;;;;;;;2.88;2.15;;;18.10;99.90;;;;;;5127366;27;20482;-82
2023/07/01 09:00:17;;;;;;;2.70;2.00;;;18.20;99.90;;;;;;5126110;27;20482;-79
2023/07/01 09:02:43;;;;;;;2.30;2.10;;;18.20;99.90;;;;;;5075960;27;20211;-81
2023/07/01 09:05:09;;;;;;;2.33;2.13;;;18.30;99.90;;;;;;5089900;27;20088;-81
2023/07/01 09:07:35;;;;;;;2.30;2.10;;;18.30;99.90;;;;;;5093194;27;20051;-82
2023/07/01 09:10:02;;;;;;;2.03;1.83;;;18.30;99.90;;;;;;5106934;27;20039;-80
2023/07/01 09:12:29;;;;;;;1.83;1.60;;;18.30;99.90;;;;;;5108687;27;20656;-80
2023/07/01 09:15:06;;;;;;;2.10;1.90;;;18.30;99.90;;;;;;5091512;27;20051;-78
2023/07/01 09:17:37;;;;;;;3.13;1.80;;;18.30;99.90;;;;;;5106756;27;20055;-81
2023/07/01 09:20:05;;;;;;;2.05;1.60;;;18.40;99.90;;;;;;5127938;27;20124;-80
2023/07/01 09:22:32;;;;;;;1.90;1.80;;;18.40;99.90;;;;;;5125465;27;20390;-79
2023/07/01 09:24:58;;;;;;;1.65;1.55;;;18.50;99.90;;;;;;5127393;27;20046;-79
2023/07/01 09:27:25;;;;;;;1.83;1.63;;;18.60;99.90;;;;;;5107525;27;20043;-81
2023/07/01 09:29:53;;;;;;;2.72;1.75;;;18.60;99.90;;;;;;5107777;27;20054;-80
2023/07/01 09:32:29;;;;;;;1.92;1.63;;;18.70;99.90;;;;;;5092277;27;20429;-80
2023/07/01 09:34:57;;;;;;;2.28;1.30;;;18.70;99.90;;;;;;5089977;27;20043;-80
2023/07/01 09:37:24;;;;;;;2.35;1.55;;;18.70;99.90;;;;;;5109034;27;20474;-82
2023/07/01 09:39:50;;;;;;;2.00;1.80;;;18.80;99.90;;;;;;5072059;27;20039;-79
2023/07/01 09:42:18;;;;;;;1.30;1.20;;;18.80;99.90;;;;;;5107478;27;20047;-80
2023/07/01 09:45:08;;;;;;;1.45;1.27;;;18.80;99.90;;;;;;5107321;27;20042;-82
2023/07/01 09:47:34;;;;;;;1.88;1.38;;;18.70;99.90;;;;;;5060131;27;20057;-82
2023/07/01 09:50:02;;;;;;;1.90;1.27;;;18.60;99.90;;;;;;5091954;27;20043;-81
2023/07/01 09:52:35;;;;;;;2.03;1.48;;;18.60;99.90;;;;;;5106362;27;20051;-81
2023/07/01 09:55:02;;;;;;;1.63;1.52;;;18.70;99.90;;;;;;5108061;27;20047;-81
2023/07/01 09:57:29;;;;;;;2.00;1.80;;;20.30;99.90;;;;;;5073068;27;20039;-81
2023/07/01 09:59:55;;;;;;;1.83;1.27;;;18.80;99.90;;;;;;5090219;27;20139;-81
2023/07/01 10:02:22;;;;;;;2.45;1.63;;;18.80;99.90;;;;;;5090853;27;20406;-81
2023/07/01 10:04:48;;;;;;;1.52;1.40;;;18.90;99.90;;;;;;5106432;27;20515;-78
2023/07/01 10:07:14;;;;;;;2.67;1.35;;;18.90;99.90;;;;;;5108823;27;20046;-79
2023/07/01 10:09:47;;;;;;;2.40;1.20;;;18.90;99.90;;;;;;5105891;27;20398;-80
2023/07/01 10:12:17;;;;;;;2.17;0.90;;;18.80;99.90;;;;;;5107911;27;20577;-81
2023/07/01 10:14:50;;;;;;;1.88;1.17;;;18.80;99.90;;;;;;5072857;27;20055;-80
2023/07/01 10:17:17;;;;;;;5.80;0.80;;;18.80;99.90;;;;;;5106577;27;20497;-80
2023/07/01 10:19:46;;;;;;;1.30;0.85;;;18.90;99.90;;;;;;5108604;27;20149;-80
2023/07/01 10:22:26;;;;;;;1.67;0.80;;;18.80;99.90;;;;;;5105848;27;20046;-81
2023/07/01 10:25:02;;;;;;;1.40;0.68;;;18.90;99.90;;;;;;5109358;27;20043;-79
2023/07/01 10:27:40;;;;;;;1.60;1.10;;;19.00;99.90;;;;;;5108072;28;20047;-80
2023/07/01 10:30:08;;;;;;;2.75;0.93;;;19.20;99.90;;;;;;5089947;27;20051;-82
2023/07/01 10:32:34;;;;;;;1.65;1.00;;;19.30;99.90;;;;;;5091408;28;20051;-79
2023/07/01 10:34:59;;;;;;;1.77;1.13;;;19.50;99.90;;;;;;5105764;28;20035;-80
2023/07/01 10:37:29;;;;;;;1.40;1.20;;;19.60;99.90;;;;;;5091951;28;20490;-81
2023/07/01 10:39:57;;;;;;;2.72;1.33;;;19.70;99.90;;;;;;5105960;28;20115;-81
2023/07/01 10:42:33;;;;;;;1.77;1.08;;;19.70;99.90;;;;;;5090245;28;20039;-81
2023/07/01 10:45:11;;;;;;;1.40;1.27;;;19.80;99.90;;;;;;5090589;28;20046;-81
2023/07/01 10:48:03;;;;;;;1.92;1.77;;;19.80;99.90;;;;;;5105576;28;20493;-80
2023/07/01 10:50:29;;;;;;;2.40;1.45;;;19.70;99.90;;;;;;5090685;28;20155;-78
2023/07/01 10:53:01;;;;;;;2.20;2.00;;;19.60;99.90;;;;;;5089221;27;20153;-80
2023/07/01 10:55:49;;;;;;;2.95;1.60;;;19.60;99.90;;;;;;5110482;27;20047;-80
2023/07/01 10:58:26;;;;;;;2.92;1.88;;;19.50;99.90;;;;;;5111951;27;20047;-81
2023/07/01 11:00:56;;;;;;;2.33;1.75;;;19.40;99.90;;;;;;5092930;27;20470;-82
2023/07/01 11:03:34;;;;;;;1.60;1.50;;;19.30;99.90;;;;;;5078424;27;20068;-80
2023/07/01 11:06:11;;;;;;;1.98;1.65;;;19.20;99.90;;;;;;5111522;27;20387;-80
2023/07/01 11:08:48;;;;;;;3.47;1.73;;;19.20;99.90;;;;;;5110242;27;20440;-80
2023/07/01 11:11:34;;;;;;;4.38;2.03;;;19.20;99.90;;;;;;5111975;27;20352;-80
2023/07/01 11:14:06;;;;;;;3.10;2.80;;;19.20;99.90;;;;;;5091876;27;20482;-81
2023/07/01 11:16:33;;;;;;;2.78;2.40;;;19.20;99.90;;;;;;5111043;27;20051;-80
2023/07/01 11:19:04;;;;;;;3.47;2.30;;;19.20;99.90;;;;;;5093549;27;20046;-80
2023/07/01 11:21:30;;;;;;;2.97;2.50;;;19.30;99.90;;;;;;5109422;27;20057;-84
2023/07/01 11:23:59;;;;;;;2.90;2.38;;;19.40;99.90;;;;;;5094447;27;20084;-81
2023/07/01 11:26:33;;;;;;;2.95;2.20;;;19.60;99.90;;;;;;5108290;27;20050;-79
2023/07/01 11:28:59;;;;;;;2.22;2.00;;;19.80;99.90;;;;;;5111295;27;20051;-80
2023/07/01 11:31:30;;;;;;;3.50;2.40;;;19.90;99.90;;;;;;5092431;27;20047;-80
2023/07/01 11:33:56;;;;;;;5.30;2.97;;;20.10;99.90;;;;;;5110040;27;20471;-78
2023/07/01 11:36:34;;;;;;;4.25;2.58;;;20.10;99.90;;;;;;5110675;27;20092;-80
2023/07/01 11:39:05;;;;;;;2.75;2.55;;;20.10;99.90;;;;;;5092277;27;20043;-80
2023/07/01 11:41:32;;;;;;;4.25;2.13;;;20.10;99.90;;;;;;5110958;27;20085;-81
2023/07/01 11:43:58;;;;;;;4.00;2.50;;;20.10;99.90;;;;;;5092101;27;20125;-81
2023/07/01 11:46:32;;;;;;;2.63;2.17;;;20.10;99.90;;;;;;5110321;27;20581;-80
2023/07/01 11:49:08;;;;;;;11.52;2.45;;;20.10;99.90;;;;;;5092523;27;20039;-80
2023/07/01 11:51:38;;;;;;;3.50;2.80;;;20.10;99.90;;;;;;5076906;27;20086;-81
2023/07/01 11:54:04;;;;;;;3.42;3.05;;;20.10;99.90;;;;;;5094445;27;20724;-81
2023/07/01 11:56:29;;;;;;;3.08;2.72;;;20.30;99.90;;;;;;5092289;27;20548;-80
2023/07/01 11:58:55;;;;;;;5.63;3.05;;;19.70;99.90;;;;;;5077842;27;20347;-81
2023/07/01 12:01:25;;;;;;;4.95;3.55;;;20.40;99.90;;;;;;5092725;27;20047;-82
2023/07/01 12:03:54;;;;;;;5.88;3.53;;;20.40;99.90;;;;;;5110199;27;20078;-80
2023/07/01 12:06:22;;;;;;;6.65;3.80;;;20.50;99.90;;;;;;5075647;27;20035;-81
2023/07/01 12:08:54;;;;;;;3.78;3.38;;;20.60;99.90;;;;;;5074499;27;20035;-79
2023/07/01 12:11:21;;;;;;;7.80;4.05;;;20.80;99.90;;;;;;5110662;27;20054;-80
2023/07/01 12:13:47;;;;;;;4.03;3.47;;;20.90;99.90;;;;;;5108243;27;20051;-80
2023/07/01 12:16:13;;;;;;;4.32;3.63;;;21.00;99.90;;;;;;5093063;27;20063;-81
2023/07/01 12:18:38;;;;;;;5.50;4.03;;;21.00;99.90;;;;;;5108739;27;20040;-82
2023/07/01 12:21:05;;;;;;;5.32;3.15;;;20.90;99.90;;;;;;5075604;27;20070;-79
2023/07/01 12:23:39;;;;;;;4.65;3.20;;;20.80;99.90;;;;;;5093131;27;20111;-80
2023/07/01 12:26:05;;;;;;;5.90;3.30;;;20.80;99.90;;;;;;5108444;27;20397;-80
2023/07/01 12:28:31;;;;;;;3.95;3.28;;;20.80;99.90;;;;;;5076875;27;20135;-80
2023/07/01 12:30:57;;;;;;;9.18;3.88;;;20.90;99.90;;;;;;5108247;27;20047;-80
2023/07/01 12:33:23;;;;;;;4.63;3.42;;;21.10;99.90;;;;;;5110833;27;20047;-81
2023/07/01 12:35:49;;;;;;;5.07;3.05;;;21.30;99.90;;;;;;5075584;27;20047;-79
2023/07/01 12:38:14;;;;;;;3.85;3.00;;;20.10;99.90;;;;;;5108912;27;20047;-79
2023/07/01 12:40:40;;;;;;;4.93;3.28;;;21.60;99.90;;;;;;5091974;27;20120;-79
2023/07/01 12:43:07;;;;;;;4.43;2.45;;;21.80;99.90;;;;;;5090890;27;20046;-78
2023/07/01 12:45:33;;;;;;;4.28;2.30;;;22.00;99.90;;;;;;5109929;27;20055;-79
2023/07/01 12:48:01;;;;;;;2.92;1.95;;;22.10;99.90;;;;;;5107086;27;20426;-79
2023/07/01 12:50:27;;;;;;;5.78;2.47;;;22.10;99.90;;;;;;5109129;27;20035;-80